createdAt,value
2023-02-19T00:00:03.969Z,4.40
2023-02-19T00:00:26.701Z,4.30
2023-02-19T00:00:49.403Z,4.30
2023-02-19T00:01:13.590Z,4.30
2023-02-19T00:01:37.610Z,4.30
2023-02-19T00:02:00.255Z,4.20
2023-02-19T00:02:22.928Z,4.20
2023-02-19T00:02:46.905Z,4.30
2023-02-19T00:03:09.620Z,4.20
2023-02-19T00:03:32.360Z,4.30
2023-02-19T00:03:56.490Z,4.30
2023-02-19T00:04:20.357Z,4.30
2023-02-19T00:04:44.686Z,4.30
2023-02-19T00:05:07.932Z,4.40
2023-02-19T00:05:30.739Z,4.40
2023-02-19T00:05:53.452Z,4.30
2023-02-19T00:06:16.175Z,4.30
2023-02-19T00:06:38.888Z,4.30
2023-02-19T00:07:01.637Z,4.20
2023-02-19T00:07:24.348Z,4.20
2023-02-19T00:07:47.037Z,4.20
2023-02-19T00:08:09.758Z,4.10
2023-02-19T00:08:32.448Z,4.10
2023-02-19T00:08:55.360Z,4.10
2023-02-19T00:09:19.097Z,4.10
2023-02-19T00:09:41.788Z,4.20
2023-02-19T00:10:04.682Z,4.10
2023-02-19T00:10:27.443Z,4.10
2023-02-19T00:10:50.163Z,4.10
2023-02-19T00:11:16.548Z,4.00
2023-02-19T00:11:39.446Z,4.00
2023-02-19T00:12:02.138Z,4.00
2023-02-19T00:12:24.835Z,4.00
2023-02-19T00:12:47.526Z,4.00
2023-02-19T00:13:10.502Z,4.00
2023-02-19T00:13:36.004Z,3.90
2023-02-19T00:13:59.002Z,3.90
2023-02-19T00:14:21.972Z,3.90
2023-02-19T00:14:44.822Z,3.90
2023-02-19T00:15:07.987Z,3.90
2023-02-19T00:15:32.660Z,3.90
2023-02-19T00:15:56.703Z,3.90
2023-02-19T00:16:20.612Z,3.90
2023-02-19T00:16:43.413Z,3.90
2023-02-19T00:17:06.121Z,3.90
2023-02-19T00:17:28.808Z,3.90
2023-02-19T00:17:51.764Z,3.90
2023-02-19T00:18:14.473Z,4.00
2023-02-19T00:18:37.282Z,4.00
2023-02-19T00:19:00.336Z,3.90
2023-02-19T00:19:23.695Z,4.00
2023-02-19T00:19:47.774Z,4.00
2023-02-19T00:20:10.897Z,4.00
2023-02-19T00:20:33.541Z,4.00
2023-02-19T00:20:57.491Z,4.10
2023-02-19T00:21:20.446Z,4.10
2023-02-19T00:21:43.201Z,4.10
2023-02-19T00:22:05.929Z,4.10
2023-02-19T00:22:28.799Z,4.10
2023-02-19T00:22:51.426Z,4.00
2023-02-19T00:23:14.208Z,4.00
2023-02-19T00:23:37.267Z,4.00
2023-02-19T00:24:00.953Z,4.00
2023-02-19T00:24:23.669Z,4.00
2023-02-19T00:24:48.409Z,4.00
2023-02-19T00:25:11.977Z,4.00
2023-02-19T00:25:37.334Z,4.00
2023-02-19T00:26:17.296Z,4.00
2023-02-19T00:26:41.559Z,4.00
2023-02-19T00:27:04.338Z,4.00
2023-02-19T00:27:27.003Z,4.10
2023-02-19T00:27:50.061Z,4.10
2023-02-19T00:28:12.908Z,4.10
2023-02-19T00:28:35.692Z,4.10
2023-02-19T00:28:58.702Z,4.00
2023-02-19T00:29:21.924Z,4.10
2023-02-19T00:29:44.773Z,4.00
2023-02-19T00:30:09.006Z,4.00
2023-02-19T00:30:31.712Z,4.00
2023-02-19T00:30:54.686Z,4.00
2023-02-19T00:31:19.333Z,4.00
2023-02-19T00:31:42.714Z,4.00
2023-02-19T00:32:05.822Z,4.00
2023-02-19T00:32:28.498Z,4.00
2023-02-19T00:32:51.987Z,4.00
2023-02-19T00:33:14.803Z,4.00
2023-02-19T00:33:37.721Z,4.00
2023-02-19T00:34:02.049Z,4.00
2023-02-19T00:34:24.769Z,4.00
2023-02-19T00:34:48.862Z,3.90
2023-02-19T00:35:11.549Z,3.90
2023-02-19T00:35:34.833Z,3.90
2023-02-19T00:36:00.798Z,3.80
2023-02-19T00:36:23.816Z,3.80
2023-02-19T00:36:46.594Z,3.80
2023-02-19T00:37:09.281Z,3.80
2023-02-19T00:37:32.029Z,3.80
2023-02-19T00:37:54.775Z,3.80
2023-02-19T00:38:17.561Z,3.80
2023-02-19T00:38:41.032Z,3.80
2023-02-19T00:39:03.934Z,3.90
2023-02-19T00:39:29.188Z,3.90
2023-02-19T00:39:51.921Z,3.90
2023-02-19T00:40:14.889Z,3.90
2023-02-19T00:40:38.794Z,3.90
2023-02-19T00:41:01.721Z,3.90
2023-02-19T00:41:24.651Z,3.90
2023-02-19T00:41:47.412Z,3.90
2023-02-19T00:42:10.253Z,4.00
2023-02-19T00:42:32.970Z,4.00
2023-02-19T00:42:55.697Z,4.00
2023-02-19T00:43:18.571Z,4.00
2023-02-19T00:43:41.323Z,3.90
2023-02-19T00:44:05.169Z,3.90
2023-02-19T00:44:28.026Z,3.90
2023-02-19T00:44:50.729Z,3.90
2023-02-19T00:45:13.935Z,3.90
2023-02-19T00:45:36.765Z,3.90
2023-02-19T00:45:59.485Z,3.80
2023-02-19T00:46:23.773Z,3.80
2023-02-19T00:46:47.848Z,3.80
2023-02-19T00:47:10.615Z,3.80
2023-02-19T00:47:33.542Z,3.80
2023-02-19T00:47:56.367Z,3.80
2023-02-19T00:48:19.102Z,3.80
2023-02-19T00:48:41.777Z,3.70
2023-02-19T00:49:04.680Z,3.70
2023-02-19T00:49:27.380Z,3.70
2023-02-19T00:49:51.597Z,3.60
2023-02-19T00:50:14.391Z,3.70
2023-02-19T00:50:37.252Z,3.70
2023-02-19T00:51:00.016Z,3.70
2023-02-19T00:51:23.500Z,3.70
2023-02-19T00:51:46.410Z,3.80
2023-02-19T00:52:09.186Z,3.80
2023-02-19T00:52:32.015Z,3.80
2023-02-19T00:52:54.787Z,3.90
2023-02-19T00:53:17.607Z,3.90
2023-02-19T00:53:40.340Z,3.90
2023-02-19T00:54:03.305Z,3.90
2023-02-19T00:54:26.058Z,3.90
2023-02-19T00:54:48.786Z,3.90
2023-02-19T00:55:11.533Z,3.90
2023-02-19T00:55:34.277Z,3.90
2023-02-19T00:55:56.997Z,3.90
2023-02-19T00:56:19.835Z,3.90
2023-02-19T00:56:42.590Z,3.80
2023-02-19T00:57:06.731Z,3.80
2023-02-19T00:57:29.312Z,3.80
2023-02-19T00:57:52.061Z,3.70
2023-02-19T00:58:14.802Z,3.70
2023-02-19T00:58:37.613Z,3.70
2023-02-19T00:59:00.808Z,3.70
2023-02-19T00:59:23.455Z,3.70
2023-02-19T00:59:46.326Z,3.70
2023-02-19T01:00:11.206Z,3.70
2023-02-19T01:00:34.088Z,3.70
2023-02-19T01:00:56.882Z,3.70
2023-02-19T01:01:20.826Z,3.70
2023-02-19T01:01:44.734Z,3.70
2023-02-19T01:02:07.942Z,3.60
2023-02-19T01:02:30.683Z,3.60
2023-02-19T01:02:53.511Z,3.60
2023-02-19T01:03:16.312Z,3.50
2023-02-19T01:03:39.376Z,3.60
2023-02-19T01:04:02.090Z,3.60
2023-02-19T01:04:24.911Z,3.50
2023-02-19T01:04:47.764Z,3.50
2023-02-19T01:05:13.018Z,3.50
2023-02-19T01:05:35.736Z,3.50
2023-02-19T01:05:58.515Z,3.60
2023-02-19T01:06:21.511Z,3.50
2023-02-19T01:06:44.225Z,3.50
2023-02-19T01:07:07.955Z,3.50
2023-02-19T01:07:31.987Z,3.50
2023-02-19T01:07:54.727Z,3.50
2023-02-19T01:08:17.470Z,3.50
2023-02-19T01:08:40.164Z,3.60
2023-02-19T01:09:02.858Z,3.70
2023-02-19T01:09:25.577Z,3.70
2023-02-19T01:09:48.422Z,3.70
2023-02-19T01:10:11.279Z,3.70
2023-02-19T01:10:34.022Z,3.80
2023-02-19T01:10:56.772Z,3.80
2023-02-19T01:11:20.549Z,3.80
2023-02-19T01:11:43.372Z,3.90
2023-02-19T01:12:06.484Z,3.90
2023-02-19T01:12:29.313Z,3.90
2023-02-19T01:12:51.975Z,3.90
2023-02-19T01:13:14.758Z,3.90
2023-02-19T01:13:37.501Z,3.90
2023-02-19T01:14:00.304Z,3.90
2023-02-19T01:14:23.006Z,3.90
2023-02-19T01:14:45.912Z,3.80
2023-02-19T01:15:09.606Z,3.90
2023-02-19T01:15:33.266Z,3.80
2023-02-19T01:16:02.529Z,3.80
2023-02-19T01:16:25.395Z,3.80
2023-02-19T01:16:48.110Z,3.90
2023-02-19T01:17:10.820Z,3.80
2023-02-19T01:17:35.485Z,3.80
2023-02-19T01:18:00.757Z,3.80
2023-02-19T01:18:23.510Z,3.80
2023-02-19T01:18:46.626Z,3.80
2023-02-19T01:19:11.815Z,3.90
2023-02-19T01:19:34.492Z,3.90
2023-02-19T01:19:57.244Z,3.80
2023-02-19T01:20:21.504Z,3.80
2023-02-19T01:20:44.780Z,3.80
2023-02-19T01:21:08.129Z,3.80
2023-02-19T01:21:31.283Z,3.90
2023-02-19T01:21:54.011Z,3.90
2023-02-19T01:22:19.171Z,3.90
2023-02-19T01:22:41.831Z,3.90
2023-02-19T01:23:04.481Z,3.90
2023-02-19T01:23:27.300Z,3.90
2023-02-19T01:23:50.019Z,4.00
2023-02-19T01:24:12.693Z,4.00
2023-02-19T01:24:35.445Z,4.00
2023-02-19T01:25:00.632Z,4.00
2023-02-19T01:25:23.491Z,4.00
2023-02-19T01:25:46.236Z,4.00
2023-02-19T01:26:10.885Z,4.00
2023-02-19T01:26:33.776Z,4.00
2023-02-19T01:26:56.485Z,4.00
2023-02-19T01:27:19.208Z,4.00
2023-02-19T01:27:41.933Z,4.10
2023-02-19T01:28:04.786Z,4.00
2023-02-19T01:28:27.646Z,4.10
2023-02-19T01:28:50.339Z,4.10
2023-02-19T01:29:13.105Z,4.10
2023-02-19T01:29:36.090Z,4.20
2023-02-19T01:29:58.766Z,4.10
2023-02-19T01:30:21.645Z,4.10
2023-02-19T01:30:44.399Z,4.10
2023-02-19T01:31:08.855Z,4.10
2023-02-19T01:31:32.228Z,4.10
2023-02-19T01:31:55.084Z,4.20
2023-02-19T01:32:17.982Z,4.20
2023-02-19T01:32:40.728Z,4.20
2023-02-19T01:33:04.194Z,4.20
2023-02-19T01:33:26.910Z,4.20
2023-02-19T01:33:51.154Z,4.10
2023-02-19T01:34:14.969Z,4.20
2023-02-19T01:34:37.646Z,4.10
2023-02-19T01:35:00.360Z,4.10
2023-02-19T01:35:24.657Z,4.10
2023-02-19T01:35:47.365Z,4.10
2023-02-19T01:36:11.750Z,4.00
2023-02-19T01:36:34.830Z,4.00
2023-02-19T01:36:57.530Z,4.00
2023-02-19T01:37:20.440Z,4.00
2023-02-19T01:37:43.197Z,4.00
2023-02-19T01:38:07.853Z,4.00
2023-02-19T01:38:30.654Z,4.00
2023-02-19T01:38:53.615Z,3.90
2023-02-19T01:39:16.286Z,4.00
2023-02-19T01:39:39.107Z,3.90
2023-02-19T01:40:01.834Z,4.00
2023-02-19T01:40:24.587Z,4.00
2023-02-19T01:40:55.125Z,4.00
2023-02-19T01:41:18.882Z,4.00
2023-02-19T01:41:42.054Z,4.00
2023-02-19T01:42:05.172Z,4.00
2023-02-19T01:42:27.937Z,3.90
2023-02-19T01:42:50.670Z,3.90
2023-02-19T01:43:16.028Z,3.90
2023-02-19T01:43:55.420Z,3.90
2023-02-19T01:44:54.927Z,3.90
2023-02-19T01:45:28.851Z,3.80
2023-02-19T01:45:51.594Z,3.90
2023-02-19T01:46:14.357Z,3.90
2023-02-19T01:46:37.704Z,3.90
2023-02-19T01:47:00.647Z,3.90
2023-02-19T01:47:23.476Z,3.90
2023-02-19T01:47:46.562Z,3.90
2023-02-19T01:48:10.931Z,3.90
2023-02-19T01:48:34.895Z,3.90
2023-02-19T01:48:58.875Z,3.90
2023-02-19T01:49:23.524Z,3.90
2023-02-19T01:49:50.283Z,3.90
2023-02-19T01:50:13.198Z,3.90
2023-02-19T01:50:40.379Z,3.90
2023-02-19T01:51:04.467Z,3.90
2023-02-19T01:51:27.870Z,3.90
2023-02-19T01:51:53.316Z,4.00
2023-02-19T01:52:17.608Z,4.00
2023-02-19T01:52:40.342Z,4.00
2023-02-19T01:53:05.457Z,4.00
2023-02-19T01:53:29.632Z,4.00
2023-02-19T01:53:55.065Z,4.10
2023-02-19T01:54:20.177Z,4.10
2023-02-19T01:54:43.534Z,4.00
2023-02-19T01:55:07.685Z,4.00
2023-02-19T01:55:30.437Z,4.00
2023-02-19T01:55:54.293Z,4.00
2023-02-19T01:56:17.119Z,4.10
2023-02-19T01:56:40.659Z,4.00
2023-02-19T01:57:04.338Z,4.10
2023-02-19T01:57:28.648Z,4.10
2023-02-19T01:57:52.972Z,4.00
2023-02-19T01:58:15.838Z,4.10
2023-02-19T01:58:38.573Z,4.10
2023-02-19T01:59:01.988Z,4.10
2023-02-19T01:59:24.713Z,4.10
2023-02-19T01:59:47.450Z,4.20
2023-02-19T02:00:12.323Z,4.20
2023-02-19T02:00:35.181Z,4.20
2023-02-19T02:00:58.138Z,4.20
2023-02-19T02:01:20.809Z,4.20
2023-02-19T02:01:44.075Z,4.20
2023-02-19T02:02:06.894Z,4.20
2023-02-19T02:02:29.703Z,4.20
2023-02-19T02:02:53.235Z,4.20
2023-02-19T02:03:16.659Z,4.10
2023-02-19T02:03:40.506Z,4.10
2023-02-19T02:04:03.273Z,4.10
2023-02-19T02:04:28.419Z,4.10
2023-02-19T02:04:51.218Z,4.10
2023-02-19T02:05:18.192Z,4.10
2023-02-19T02:05:50.144Z,4.10
2023-02-19T02:06:14.263Z,4.10
2023-02-19T02:06:39.684Z,4.10
2023-02-19T02:07:03.711Z,4.10
2023-02-19T02:07:45.263Z,4.10
2023-02-19T02:08:26.443Z,4.10
2023-02-19T02:09:09.298Z,4.10
2023-02-19T02:09:50.595Z,4.10
2023-02-19T02:10:22.600Z,4.10
2023-02-19T02:10:45.388Z,4.10
2023-02-19T02:11:08.263Z,4.10
2023-02-19T02:11:31.564Z,4.10
2023-02-19T02:11:54.741Z,4.10
2023-02-19T02:12:17.364Z,4.10
2023-02-19T02:12:40.190Z,4.10
2023-02-19T02:13:02.917Z,4.10
2023-02-19T02:13:25.568Z,4.00
2023-02-19T02:13:48.321Z,4.00
2023-02-19T02:14:11.054Z,4.00
2023-02-19T02:14:35.217Z,4.00
2023-02-19T02:14:57.934Z,4.00
2023-02-19T02:15:22.461Z,4.10
2023-02-19T02:15:50.960Z,4.10
2023-02-19T02:16:20.660Z,4.10
2023-02-19T02:16:47.410Z,4.10
2023-02-19T02:17:13.772Z,4.10
2023-02-19T02:17:39.870Z,4.10
2023-02-19T02:18:05.418Z,4.10
2023-02-19T02:18:33.126Z,4.10
2023-02-19T02:19:00.567Z,4.10
2023-02-19T02:19:40.466Z,4.10
2023-02-19T02:20:15.419Z,4.10
2023-02-19T02:20:51.536Z,4.10
2023-02-19T02:21:47.043Z,4.10
2023-02-19T02:22:12.638Z,4.10
2023-02-19T02:22:36.909Z,4.10
2023-02-19T02:23:01.438Z,4.10
2023-02-19T02:23:30.251Z,4.10
2023-02-19T02:24:03.254Z,4.10
2023-02-19T02:24:52.138Z,4.00
2023-02-19T02:25:35.554Z,4.00
2023-02-19T02:26:08.590Z,4.00
2023-02-19T02:26:42.316Z,4.00
2023-02-19T02:27:17.515Z,3.90
2023-02-19T02:27:44.166Z,3.80
2023-02-19T02:28:17.396Z,3.80
2023-02-19T02:29:15.005Z,3.70
2023-02-19T02:30:07.067Z,3.70
2023-02-19T02:30:36.911Z,3.60
2023-02-19T02:30:59.675Z,3.50
2023-02-19T02:31:23.488Z,3.50
2023-02-19T02:31:47.775Z,3.50
2023-02-19T02:32:11.415Z,3.50
2023-02-19T02:32:35.706Z,3.50
2023-02-19T02:33:01.270Z,3.40
2023-02-19T02:33:28.968Z,3.40
2023-02-19T02:33:54.786Z,3.40
2023-02-19T02:34:19.391Z,3.40
2023-02-19T02:34:45.762Z,3.40
2023-02-19T02:35:09.782Z,3.30
2023-02-19T02:35:35.074Z,3.30
2023-02-19T02:35:59.104Z,3.30
2023-02-19T02:36:24.812Z,3.30
2023-02-19T02:36:50.047Z,3.30
2023-02-19T02:37:12.804Z,3.30
2023-02-19T02:37:36.768Z,3.30
2023-02-19T02:38:02.882Z,3.40
2023-02-19T02:38:28.343Z,3.40
2023-02-19T02:38:52.986Z,3.40
2023-02-19T02:39:17.756Z,3.40
2023-02-19T02:39:40.483Z,3.40
2023-02-19T02:40:03.491Z,3.40
2023-02-19T02:40:26.242Z,3.50
2023-02-19T02:40:49.001Z,3.50
2023-02-19T02:41:12.439Z,3.60
2023-02-19T02:41:35.531Z,3.60
2023-02-19T02:42:17.782Z,3.60
2023-02-19T02:42:40.531Z,3.60
2023-02-19T02:43:03.283Z,3.60
2023-02-19T02:43:26.094Z,3.60
2023-02-19T02:43:48.878Z,3.60
2023-02-19T02:44:14.882Z,3.50
2023-02-19T02:44:41.763Z,3.50
2023-02-19T02:45:37.716Z,3.50
2023-02-19T02:46:00.613Z,3.40
2023-02-19T02:46:24.708Z,3.50
2023-02-19T02:46:47.564Z,3.50
2023-02-19T02:47:30.245Z,3.50
2023-02-19T02:47:54.392Z,3.40
2023-02-19T02:48:21.456Z,3.50
2023-02-19T02:48:45.474Z,3.40
2023-02-19T02:49:11.096Z,3.50
2023-02-19T02:49:33.962Z,3.50
2023-02-19T02:50:05.544Z,3.50
2023-02-19T02:50:29.771Z,3.50
2023-02-19T02:50:55.526Z,3.50
2023-02-19T02:51:20.102Z,3.60
2023-02-19T02:51:44.960Z,3.60
2023-02-19T02:52:27.652Z,3.50
2023-02-19T02:53:10.626Z,3.50
2023-02-19T02:53:53.830Z,3.50
2023-02-19T02:54:34.394Z,3.40
2023-02-19T02:55:03.165Z,3.50
2023-02-19T02:55:26.086Z,3.40
2023-02-19T02:55:50.424Z,3.40
2023-02-19T02:56:14.106Z,3.40
2023-02-19T02:56:36.849Z,3.40
2023-02-19T02:56:59.641Z,3.40
2023-02-19T02:57:22.375Z,3.40
2023-02-19T02:57:45.165Z,3.40
2023-02-19T02:58:08.181Z,3.40
2023-02-19T02:58:30.897Z,3.40
2023-02-19T02:58:53.619Z,3.40
2023-02-19T02:59:18.144Z,3.40
2023-02-19T02:59:40.875Z,3.40
2023-02-19T03:00:06.817Z,3.40
2023-02-19T03:00:51.994Z,3.30
2023-02-19T03:01:35.776Z,3.30
2023-02-19T03:02:12.475Z,3.30
2023-02-19T03:02:35.376Z,3.30
2023-02-19T03:02:58.142Z,3.20
2023-02-19T03:03:22.037Z,3.20
2023-02-19T03:03:45.661Z,3.20
2023-02-19T03:04:09.936Z,3.20
2023-02-19T03:04:35.471Z,3.20
2023-02-19T03:05:21.439Z,3.10
2023-02-19T03:05:53.463Z,3.10
2023-02-19T03:06:17.033Z,3.20
2023-02-19T03:06:39.786Z,3.20
2023-02-19T03:07:06.011Z,3.20
2023-02-19T03:07:30.406Z,3.20
2023-02-19T03:07:54.720Z,3.20
2023-02-19T03:08:18.901Z,3.20
2023-02-19T03:08:42.828Z,3.20
2023-02-19T03:09:09.854Z,3.20
2023-02-19T03:09:35.062Z,3.10
2023-02-19T03:09:58.221Z,3.10
2023-02-19T03:10:22.666Z,3.20
2023-02-19T03:10:47.813Z,3.20
2023-02-19T03:11:29.672Z,3.10
2023-02-19T03:12:10.729Z,3.10
2023-02-19T03:12:52.302Z,3.20
2023-02-19T03:13:35.486Z,3.20
2023-02-19T03:14:19.700Z,3.20
2023-02-19T03:15:04.427Z,3.10
2023-02-19T03:15:47.061Z,3.20
2023-02-19T03:16:32.533Z,3.20
2023-02-19T03:17:20.112Z,3.20
2023-02-19T03:18:05.566Z,3.10
2023-02-19T03:18:47.151Z,3.10
2023-02-19T03:19:20.642Z,3.10
2023-02-19T03:19:44.809Z,3.20
2023-02-19T03:20:09.926Z,3.20
2023-02-19T03:20:36.169Z,3.20
2023-02-19T03:20:59.696Z,3.20
2023-02-19T03:21:22.402Z,3.20
2023-02-19T03:21:46.905Z,3.20
2023-02-19T03:22:12.492Z,3.30
2023-02-19T03:22:36.501Z,3.30
2023-02-19T03:22:59.180Z,3.30
2023-02-19T03:23:22.086Z,3.30
2023-02-19T03:24:03.689Z,3.30
2023-02-19T03:24:47.198Z,3.30
2023-02-19T03:25:30.426Z,3.20
2023-02-19T03:26:05.293Z,3.30
2023-02-19T03:26:28.024Z,3.30
2023-02-19T03:26:54.290Z,3.30
2023-02-19T03:27:17.540Z,3.30
2023-02-19T03:27:41.146Z,3.40
2023-02-19T03:28:05.440Z,3.40
2023-02-19T03:28:48.187Z,3.40
2023-02-19T03:29:23.274Z,3.40
2023-02-19T03:29:46.307Z,3.50
2023-02-19T03:30:11.923Z,3.60
2023-02-19T03:30:36.513Z,3.50
2023-02-19T03:30:59.185Z,3.50
2023-02-19T03:31:24.254Z,3.50
2023-02-19T03:31:47.123Z,3.60
2023-02-19T03:32:11.674Z,3.60
2023-02-19T03:32:36.539Z,3.60
2023-02-19T03:33:00.471Z,3.60
2023-02-19T03:33:24.163Z,3.60
2023-02-19T03:33:50.402Z,3.60
2023-02-19T03:34:15.445Z,3.60
2023-02-19T03:34:43.201Z,3.60
2023-02-19T03:35:08.839Z,3.50
2023-02-19T03:35:32.502Z,3.60
2023-02-19T03:35:57.420Z,3.50
2023-02-19T03:36:25.808Z,3.50
2023-02-19T03:36:53.850Z,3.50
2023-02-19T03:37:17.447Z,3.50
2023-02-19T03:37:42.495Z,3.50
2023-02-19T03:38:07.224Z,3.60
2023-02-19T03:38:32.406Z,3.60
2023-02-19T03:38:58.932Z,3.60
2023-02-19T03:39:22.572Z,3.60
2023-02-19T03:39:45.372Z,3.60
2023-02-19T03:40:09.685Z,3.60
2023-02-19T03:40:34.635Z,3.60
2023-02-19T03:41:00.438Z,3.60
2023-02-19T03:41:25.879Z,3.60
2023-02-19T03:41:53.662Z,3.60
2023-02-19T03:42:21.522Z,3.60
2023-02-19T03:42:46.712Z,3.60
2023-02-19T03:43:16.377Z,3.60
2023-02-19T03:43:41.241Z,3.50
2023-02-19T03:44:07.847Z,3.50
2023-02-19T03:44:36.467Z,3.50
2023-02-19T03:45:08.323Z,3.50
2023-02-19T03:45:36.755Z,3.50
2023-02-19T03:46:03.058Z,3.50
2023-02-19T03:46:29.921Z,3.60
2023-02-19T03:46:55.020Z,3.60
2023-02-19T03:47:19.703Z,3.60
2023-02-19T03:47:45.930Z,3.60
2023-02-19T03:48:19.067Z,3.60
2023-02-19T03:48:45.452Z,3.60
2023-02-19T03:49:11.023Z,3.50
2023-02-19T03:49:38.526Z,3.50
2023-02-19T03:50:03.185Z,3.40
2023-02-19T03:50:27.712Z,3.50
2023-02-19T03:50:55.347Z,3.40
2023-02-19T03:51:31.078Z,3.40
2023-02-19T03:51:55.557Z,3.40
2023-02-19T03:52:24.192Z,3.40
2023-02-19T03:52:52.637Z,3.40
2023-02-19T03:53:18.626Z,3.50
2023-02-19T03:53:49.518Z,3.50
2023-02-19T03:54:13.256Z,3.50
2023-02-19T03:54:38.101Z,3.50
2023-02-19T03:55:03.376Z,3.50
2023-02-19T03:55:28.392Z,3.50
2023-02-19T03:55:54.306Z,3.50
2023-02-19T03:56:18.958Z,3.40
2023-02-19T03:56:44.491Z,3.50
2023-02-19T03:57:11.050Z,3.50
2023-02-19T03:57:39.635Z,3.50
2023-02-19T03:58:05.453Z,3.50
2023-02-19T03:58:30.544Z,3.40
2023-02-19T03:58:57.061Z,3.40
2023-02-19T03:59:21.280Z,3.40
2023-02-19T03:59:46.878Z,3.30
2023-02-19T04:00:11.536Z,3.30
2023-02-19T04:00:37.744Z,3.30
2023-02-19T04:01:04.026Z,3.30
2023-02-19T04:01:31.616Z,3.30
2023-02-19T04:01:55.562Z,3.30
2023-02-19T04:02:19.726Z,3.20
2023-02-19T04:02:44.810Z,3.20
2023-02-19T04:03:09.483Z,3.20
2023-02-19T04:03:34.497Z,3.20
2023-02-19T04:03:59.032Z,3.20
2023-02-19T04:04:24.068Z,3.20
2023-02-19T04:04:49.595Z,3.20
2023-02-19T04:05:14.259Z,3.20
2023-02-19T04:05:40.243Z,3.10
2023-02-19T04:06:04.658Z,3.20
2023-02-19T04:06:29.434Z,3.10
2023-02-19T04:06:54.495Z,3.10
2023-02-19T04:07:17.267Z,3.10
2023-02-19T04:07:42.179Z,3.10
2023-02-19T04:08:09.138Z,3.20
2023-02-19T04:08:32.029Z,3.20
2023-02-19T04:08:56.933Z,3.20
2023-02-19T04:09:19.646Z,3.20
2023-02-19T04:09:44.018Z,3.20
2023-02-19T04:10:07.083Z,3.20
2023-02-19T04:10:29.958Z,3.20
2023-02-19T04:10:52.603Z,3.20
2023-02-19T04:11:15.992Z,3.20
2023-02-19T04:11:38.912Z,3.20
2023-02-19T04:12:01.746Z,3.20
2023-02-19T04:12:24.488Z,3.20
2023-02-19T04:12:49.911Z,3.20
2023-02-19T04:13:18.483Z,3.20
2023-02-19T04:13:44.107Z,3.20
2023-02-19T04:14:08.938Z,3.20
2023-02-19T04:14:33.598Z,3.20
2023-02-19T04:15:01.060Z,3.20
2023-02-19T04:15:25.783Z,3.20
2023-02-19T04:15:48.978Z,3.20
2023-02-19T04:16:15.430Z,3.20
2023-02-19T04:16:40.715Z,3.20
2023-02-19T04:17:05.641Z,3.20
2023-02-19T04:17:29.937Z,3.20
2023-02-19T04:17:55.716Z,3.20
2023-02-19T04:18:19.964Z,3.20
2023-02-19T04:18:42.729Z,3.20
2023-02-19T04:19:08.049Z,3.30
2023-02-19T04:19:31.892Z,3.30
2023-02-19T04:19:54.488Z,3.30
2023-02-19T04:20:17.320Z,3.30
2023-02-19T04:20:41.343Z,3.40
2023-02-19T04:21:04.300Z,3.40
2023-02-19T04:21:27.134Z,3.30
2023-02-19T04:21:49.932Z,3.40
2023-02-19T04:22:12.713Z,3.40
2023-02-19T04:22:36.552Z,3.50
2023-02-19T04:22:59.297Z,3.50
2023-02-19T04:23:23.646Z,3.50
2023-02-19T04:23:46.483Z,3.50
2023-02-19T04:24:11.942Z,3.50
2023-02-19T04:24:37.466Z,3.40
2023-02-19T04:25:00.994Z,3.40
2023-02-19T04:25:24.389Z,3.30
2023-02-19T04:25:48.974Z,3.30
2023-02-19T04:26:11.694Z,3.30
2023-02-19T04:26:35.133Z,3.20
2023-02-19T04:26:57.949Z,3.20
2023-02-19T04:27:20.701Z,3.20
2023-02-19T04:27:44.379Z,3.20
2023-02-19T04:28:07.811Z,3.30
2023-02-19T04:28:30.692Z,3.30
2023-02-19T04:28:54.224Z,3.30
2023-02-19T04:29:16.928Z,3.30
2023-02-19T04:29:39.746Z,3.30
2023-02-19T04:30:02.422Z,3.40
2023-02-19T04:30:25.542Z,3.40
2023-02-19T04:30:48.313Z,3.40
2023-02-19T04:31:11.351Z,3.40
2023-02-19T04:31:35.942Z,3.30
2023-02-19T04:32:00.166Z,3.40
2023-02-19T04:32:22.807Z,3.30
2023-02-19T04:32:45.641Z,3.30
2023-02-19T04:33:08.352Z,3.30
2023-02-19T04:33:31.095Z,3.30
2023-02-19T04:33:53.900Z,3.30
2023-02-19T04:34:16.574Z,3.30
2023-02-19T04:34:39.369Z,3.30
2023-02-19T04:35:05.229Z,3.30
2023-02-19T04:35:27.870Z,3.30
2023-02-19T04:35:50.588Z,3.30
2023-02-19T04:36:14.478Z,3.30
2023-02-19T04:36:37.179Z,3.20
2023-02-19T04:36:59.902Z,3.20
2023-02-19T04:37:22.663Z,3.20
2023-02-19T04:37:45.363Z,3.20
2023-02-19T04:38:08.166Z,3.20
2023-02-19T04:38:30.919Z,3.20
2023-02-19T04:38:53.742Z,3.20
2023-02-19T04:39:16.561Z,3.20
2023-02-19T04:39:39.291Z,3.20
2023-02-19T04:40:01.988Z,3.20
2023-02-19T04:40:24.813Z,3.20
2023-02-19T04:40:47.667Z,3.20
2023-02-19T04:41:10.646Z,3.20
2023-02-19T04:41:33.658Z,3.20
2023-02-19T04:41:56.354Z,3.20
2023-02-19T04:42:19.037Z,3.20
2023-02-19T04:42:41.798Z,3.20
2023-02-19T04:43:04.469Z,3.20
2023-02-19T04:43:27.227Z,3.20
2023-02-19T04:43:50.083Z,3.20
2023-02-19T04:44:12.927Z,3.20
2023-02-19T04:44:35.677Z,3.20
2023-02-19T04:44:58.418Z,3.20
2023-02-19T04:45:21.232Z,3.20
2023-02-19T04:45:44.151Z,3.20
2023-02-19T04:46:07.030Z,3.30
2023-02-19T04:46:29.825Z,3.30
2023-02-19T04:46:52.613Z,3.30
2023-02-19T04:47:17.945Z,3.30
2023-02-19T04:47:40.619Z,3.30
2023-02-19T04:48:03.403Z,3.30
2023-02-19T04:48:26.128Z,3.40
2023-02-19T04:48:48.807Z,3.30
2023-02-19T04:49:11.567Z,3.40
2023-02-19T04:49:34.268Z,3.30
2023-02-19T04:49:56.978Z,3.30
2023-02-19T04:50:19.843Z,3.30
2023-02-19T04:50:42.491Z,3.30
2023-02-19T04:51:07.051Z,3.30
2023-02-19T04:51:29.800Z,3.30
2023-02-19T04:51:52.481Z,3.30
2023-02-19T04:52:15.217Z,3.30
2023-02-19T04:52:37.976Z,3.30
2023-02-19T04:53:00.654Z,3.30
2023-02-19T04:53:23.351Z,3.20
2023-02-19T04:53:46.070Z,3.20
2023-02-19T04:54:08.813Z,3.20
2023-02-19T04:54:31.568Z,3.20
2023-02-19T04:54:54.410Z,3.20
2023-02-19T04:55:17.437Z,3.10
2023-02-19T04:55:40.213Z,3.10
2023-02-19T04:56:07.188Z,3.10
2023-02-19T04:56:30.037Z,3.10
2023-02-19T04:56:52.926Z,3.10
2023-02-19T04:57:15.667Z,3.10
2023-02-19T04:57:38.422Z,3.10
2023-02-19T04:58:01.121Z,3.10
2023-02-19T04:58:24.090Z,3.10
2023-02-19T04:58:46.881Z,3.20
2023-02-19T04:59:09.606Z,3.10
2023-02-19T04:59:32.360Z,3.20
2023-02-19T04:59:55.055Z,3.10
2023-02-19T05:00:17.880Z,3.20
2023-02-19T05:00:40.575Z,3.10
2023-02-19T05:01:03.389Z,3.20
2023-02-19T05:01:26.285Z,3.20
2023-02-19T05:01:48.973Z,3.20
2023-02-19T05:02:11.682Z,3.30
2023-02-19T05:02:38.651Z,3.30
2023-02-19T05:03:01.597Z,3.30
2023-02-19T05:03:24.758Z,3.30
2023-02-19T05:03:47.602Z,3.30
2023-02-19T05:04:10.555Z,3.40
2023-02-19T05:04:33.592Z,3.40
2023-02-19T05:04:56.422Z,3.30
2023-02-19T05:05:19.162Z,3.30
2023-02-19T05:05:41.906Z,3.30
2023-02-19T05:06:04.975Z,3.30
2023-02-19T05:06:27.755Z,3.30
2023-02-19T05:06:50.450Z,3.30
2023-02-19T05:07:13.131Z,3.30
2023-02-19T05:07:35.875Z,3.40
2023-02-19T05:07:58.582Z,3.40
2023-02-19T05:08:21.297Z,3.50
2023-02-19T05:08:44.165Z,3.40
2023-02-19T05:09:06.886Z,3.40
2023-02-19T05:09:29.614Z,3.40
2023-02-19T05:09:52.470Z,3.40
2023-02-19T05:10:15.259Z,3.40
2023-02-19T05:10:40.330Z,3.50
2023-02-19T05:11:03.858Z,3.50
2023-02-19T05:11:26.898Z,3.50
2023-02-19T05:11:49.627Z,3.50
2023-02-19T05:12:12.346Z,3.50
2023-02-19T05:12:35.041Z,3.50
2023-02-19T05:12:58.197Z,3.50
2023-02-19T05:13:20.946Z,3.60
2023-02-19T05:13:43.706Z,3.60
2023-02-19T05:14:06.561Z,3.50
2023-02-19T05:14:29.246Z,3.50
2023-02-19T05:14:52.043Z,3.50
2023-02-19T05:15:14.990Z,3.50
2023-02-19T05:15:37.806Z,3.50
2023-02-19T05:16:01.344Z,3.50
2023-02-19T05:16:24.197Z,3.50
2023-02-19T05:16:47.784Z,3.50
2023-02-19T05:17:10.492Z,3.50
2023-02-19T05:17:34.592Z,3.50
2023-02-19T05:17:58.773Z,3.50
2023-02-19T05:18:21.542Z,3.50
2023-02-19T05:18:47.643Z,3.40
2023-02-19T05:19:11.560Z,3.40
2023-02-19T05:19:34.271Z,3.40
2023-02-19T05:19:56.972Z,3.40
2023-02-19T05:20:19.962Z,3.40
2023-02-19T05:20:42.726Z,3.40
2023-02-19T05:21:05.858Z,3.50
2023-02-19T05:21:28.500Z,3.50
2023-02-19T05:21:51.204Z,3.50
2023-02-19T05:22:13.922Z,3.50
2023-02-19T05:22:36.547Z,3.50
2023-02-19T05:23:02.569Z,3.50
2023-02-19T05:23:25.452Z,3.50
2023-02-19T05:23:48.131Z,3.40
2023-02-19T05:24:11.018Z,3.50
2023-02-19T05:24:33.783Z,3.40
2023-02-19T05:24:56.474Z,3.50
2023-02-19T05:25:19.150Z,3.50
2023-02-19T05:25:41.969Z,3.50
2023-02-19T05:26:07.586Z,3.60
2023-02-19T05:26:31.284Z,3.60
2023-02-19T05:26:54.008Z,3.60
2023-02-19T05:27:16.730Z,3.50
2023-02-19T05:27:40.229Z,3.50
2023-02-19T05:28:18.153Z,3.50
2023-02-19T05:28:40.866Z,3.50
2023-02-19T05:29:03.764Z,3.40
2023-02-19T05:29:26.486Z,3.40
2023-02-19T05:29:49.297Z,3.40
2023-02-19T05:30:12.640Z,3.40
2023-02-19T05:30:36.279Z,3.40
2023-02-19T05:31:01.010Z,3.50
2023-02-19T05:31:23.830Z,3.50
2023-02-19T05:31:47.485Z,3.50
2023-02-19T05:32:10.765Z,3.50
2023-02-19T05:32:35.286Z,3.50